Ardmore, Tennessee
Current Conditions -  °F | °C
As of 9:15 AM on Wednesday 22 Oct 2014 (Local Time) from KFYM Reporting Station
Clear Clear  
Wind Chill:   Ceiling: Unl
Heat Index:   Visibility: 10mi
Dew Point:   Wind: 10mph
Humidity: 76%   Direction: 40°NE
Pressure: 30.21"   Gusts: NA
Location:  34.99°N, 86.85°W
Report Text: KFYM 221415Z AUTO 04009KT 10SM CLR 09/05 A3021 RMK
Loading
Personal Weather Stations






























Interactive Weather Map
Tropical Storm Tracking
New forecast layout! Learn more

10-Day Weather Forecast

Advertisements
Track Severe Weather on mobile